createdAt,value
2022-11-29T00:01:50.540Z,3.53
2022-11-29T00:04:18.823Z,4.43
2022-11-29T00:06:46.722Z,3.65
2022-11-29T00:09:14.723Z,4.15
2022-11-29T00:12:04.441Z,4.43
2022-11-29T00:14:32.381Z,4.37
2022-11-29T00:17:06.201Z,4.50
2022-11-29T00:19:36.263Z,5.00
2022-11-29T00:22:05.266Z,4.45
2022-11-29T00:24:33.275Z,4.05
2022-11-29T00:27:01.669Z,3.75
2022-11-29T00:29:30.469Z,3.70
2022-11-29T00:31:58.510Z,4.20
2022-11-29T00:34:26.483Z,4.40
2022-11-29T00:36:54.811Z,5.03
2022-11-29T00:39:22.705Z,3.60
2022-11-29T00:41:50.538Z,3.80
2022-11-29T00:44:20.575Z,4.12
2022-11-29T00:46:49.712Z,3.95
2022-11-29T00:49:19.597Z,3.80
2022-11-29T00:51:48.035Z,4.65
2022-11-29T00:54:17.041Z,5.18
2022-11-29T00:56:44.939Z,4.28
2022-11-29T00:59:13.247Z,4.22
2022-11-29T01:01:44.692Z,5.18
2022-11-29T01:04:12.844Z,4.82
2022-11-29T01:06:44.282Z,3.95
2022-11-29T01:09:12.171Z,6.40
2022-11-29T01:11:43.309Z,5.35
2022-11-29T01:14:14.723Z,4.87
2022-11-29T01:16:42.712Z,3.85
2022-11-29T01:19:11.106Z,4.57
2022-11-29T01:21:39.350Z,4.12
2022-11-29T01:24:07.358Z,5.20
2022-11-29T01:26:35.301Z,5.65
2022-11-29T01:29:06.425Z,5.15
2022-11-29T01:31:38.200Z,4.30
2022-11-29T01:34:07.640Z,4.10
2022-11-29T01:36:35.858Z,5.65
2022-11-29T01:39:07.209Z,4.07
2022-11-29T01:41:37.689Z,4.00
2022-11-29T01:44:14.611Z,4.80
2022-11-29T01:46:48.013Z,4.35
2022-11-29T01:49:21.732Z,4.32
2022-11-29T01:52:03.019Z,3.67
2022-11-29T01:54:33.000Z,4.37
2022-11-29T01:57:05.891Z,4.97
2022-11-29T01:59:35.002Z,4.20
2022-11-29T02:02:16.400Z,4.40
2022-11-29T02:04:48.742Z,4.65
2022-11-29T02:07:17.625Z,4.78
2022-11-29T02:09:45.538Z,4.32
2022-11-29T02:12:52.765Z,4.95
2022-11-29T02:15:43.007Z,4.78
2022-11-29T02:18:17.499Z,5.40
2022-11-29T02:21:13.687Z,5.35
2022-11-29T02:23:41.530Z,4.12
2022-11-29T02:26:33.044Z,3.92
2022-11-29T02:29:35.053Z,4.57
2022-11-29T02:32:40.776Z,4.80
2022-11-29T02:35:50.653Z,4.43
2022-11-29T02:38:50.721Z,4.85
2022-11-29T02:41:30.702Z,3.28
2022-11-29T02:44:12.883Z,4.00
2022-11-29T02:46:57.744Z,4.37
2022-11-29T02:49:59.299Z,4.53
2022-11-29T02:52:46.899Z,4.07
2022-11-29T02:55:22.636Z,5.53
2022-11-29T02:58:03.082Z,4.50
2022-11-29T03:00:35.983Z,3.50
2022-11-29T03:03:15.085Z,4.82
2022-11-29T03:06:02.917Z,6.03
2022-11-29T03:08:51.533Z,5.53
2022-11-29T03:11:33.760Z,5.20
2022-11-29T03:14:04.402Z,5.20
2022-11-29T03:16:42.724Z,4.20
2022-11-29T03:19:27.785Z,4.65
2022-11-29T03:22:20.051Z,4.85
2022-11-29T03:24:55.752Z,5.40
2022-11-29T03:27:42.659Z,6.05
2022-11-29T03:30:14.258Z,4.05
2022-11-29T03:33:13.370Z,5.85
2022-11-29T03:36:02.301Z,5.03
2022-11-29T03:38:41.423Z,6.68
2022-11-29T03:41:21.777Z,6.07
2022-11-29T03:44:30.216Z,5.28
2022-11-29T03:47:09.640Z,5.78
2022-11-29T03:49:46.738Z,5.05
2022-11-29T03:52:21.221Z,6.82
2022-11-29T03:55:36.689Z,7.53
2022-11-29T03:58:38.827Z,5.97
2022-11-29T04:01:24.571Z,6.18
2022-11-29T04:04:17.731Z,5.47
2022-11-29T04:07:16.792Z,6.72
2022-11-29T04:10:09.743Z,7.47
2022-11-29T04:12:55.515Z,5.72
2022-11-29T04:15:58.876Z,7.80
2022-11-29T04:19:05.490Z,6.82
2022-11-29T04:21:56.376Z,6.72
2022-11-29T04:24:33.454Z,5.93
2022-11-29T04:27:07.377Z,5.32
2022-11-29T04:29:51.392Z,6.20
2022-11-29T04:33:04.413Z,6.55
2022-11-29T04:35:51.533Z,6.87
2022-11-29T04:38:54.505Z,7.25
2022-11-29T04:41:49.445Z,7.43
2022-11-29T04:44:45.018Z,6.25
2022-11-29T04:47:34.120Z,6.85
2022-11-29T04:50:04.954Z,6.53
2022-11-29T04:52:54.545Z,7.55
2022-11-29T04:55:47.258Z,6.12
2022-11-29T04:58:24.040Z,7.40
2022-11-29T05:01:15.825Z,7.03
2022-11-29T05:04:08.830Z,7.68
2022-11-29T05:09:28.184Z,6.97
2022-11-29T05:11:56.339Z,7.20
2022-11-29T05:15:01.995Z,7.18
2022-11-29T05:17:51.203Z,7.35
2022-11-29T05:20:35.110Z,6.93
2022-11-29T05:23:21.827Z,8.20
2022-11-29T05:26:01.707Z,6.50
2022-11-29T05:28:47.927Z,6.70
2022-11-29T05:31:37.799Z,7.53
2022-11-29T05:34:18.204Z,7.78
2022-11-29T05:37:36.711Z,7.57
2022-11-29T05:40:31.195Z,6.07
2022-11-29T05:43:23.938Z,7.15
2022-11-29T05:45:57.929Z,7.37
2022-11-29T05:48:50.182Z,9.38
2022-11-29T05:51:38.660Z,7.25
2022-11-29T05:54:42.147Z,8.05
2022-11-29T05:57:36.348Z,7.87
2022-11-29T06:00:06.954Z,8.45
2022-11-29T06:03:18.333Z,7.70
2022-11-29T06:06:16.273Z,7.35
2022-11-29T06:08:57.287Z,5.82
2022-11-29T06:11:33.320Z,5.35
2022-11-29T06:14:16.871Z,6.10
2022-11-29T06:17:02.929Z,6.68
2022-11-29T06:19:46.245Z,7.45
2022-11-29T06:22:31.100Z,6.28
2022-11-29T06:25:31.908Z,7.12
2022-11-29T06:28:41.492Z,7.53
2022-11-29T06:31:18.169Z,6.95
2022-11-29T06:34:15.446Z,8.63
2022-11-29T06:36:57.817Z,6.47
2022-11-29T06:39:26.340Z,6.85
2022-11-29T06:41:54.142Z,7.53
2022-11-29T06:44:25.181Z,5.37
2022-11-29T06:47:07.502Z,7.78
2022-11-29T06:49:51.499Z,8.60
2022-11-29T06:52:45.802Z,7.82
2022-11-29T06:55:43.072Z,7.70
2022-11-29T06:58:21.241Z,5.22
2022-11-29T07:01:00.834Z,6.43
2022-11-29T07:03:32.026Z,6.82
2022-11-29T07:06:05.281Z,6.82
2022-11-29T07:08:33.882Z,7.50
2022-11-29T07:11:02.024Z,7.85
2022-11-29T07:13:30.021Z,7.90
2022-11-29T07:16:08.060Z,6.87
2022-11-29T07:18:53.145Z,6.15
2022-11-29T07:21:43.061Z,8.38
2022-11-29T07:24:33.998Z,7.05
2022-11-29T07:27:08.361Z,9.63
2022-11-29T07:29:54.037Z,8.60
2022-11-29T07:33:03.801Z,7.85
2022-11-29T07:35:46.277Z,7.72
2022-11-29T07:38:45.822Z,7.87
2022-11-29T07:41:30.766Z,7.15
2022-11-29T07:44:21.555Z,6.45
2022-11-29T07:46:49.624Z,9.13
2022-11-29T07:49:17.817Z,6.10
2022-11-29T07:51:45.627Z,6.90
2022-11-29T07:54:18.328Z,8.02
2022-11-29T07:56:46.665Z,6.55
2022-11-29T07:59:14.946Z,7.78
2022-11-29T08:01:42.935Z,8.18
2022-11-29T08:04:11.301Z,7.95
2022-11-29T08:06:39.371Z,6.95
2022-11-29T08:09:07.941Z,7.93
2022-11-29T08:11:36.076Z,6.22
2022-11-29T08:14:05.507Z,7.25
2022-11-29T08:16:33.599Z,5.62
2022-11-29T08:19:01.837Z,8.02
2022-11-29T08:21:29.568Z,7.00
2022-11-29T08:23:57.509Z,6.75
2022-11-29T08:26:31.256Z,6.80
2022-11-29T08:28:59.677Z,6.45
2022-11-29T08:31:27.996Z,6.12
2022-11-29T08:33:55.750Z,7.85
2022-11-29T08:36:23.755Z,5.50
2022-11-29T08:38:57.793Z,7.12
2022-11-29T08:41:31.563Z,7.55
2022-11-29T08:43:59.780Z,4.93
2022-11-29T08:46:47.667Z,8.30
2022-11-29T08:49:15.942Z,7.07
2022-11-29T08:51:43.753Z,7.00
2022-11-29T08:54:11.667Z,7.65
2022-11-29T08:59:27.921Z,7.82
2022-11-29T09:01:59.386Z,7.82
2022-11-29T09:04:27.241Z,6.85
2022-11-29T09:06:55.053Z,7.65
2022-11-29T09:09:23.243Z,7.45
2022-11-29T09:11:51.235Z,8.15
2022-11-29T09:14:19.753Z,6.20
2022-11-29T09:16:48.117Z,6.32
2022-11-29T09:19:16.030Z,6.93
2022-11-29T09:21:43.878Z,5.97
2022-11-29T09:24:12.216Z,7.05
2022-11-29T09:26:42.910Z,7.10
2022-11-29T09:29:14.726Z,7.60
2022-11-29T09:31:46.856Z,6.20
2022-11-29T09:34:17.268Z,6.55
2022-11-29T09:36:45.677Z,7.82
2022-11-29T09:39:13.686Z,8.80
2022-11-29T09:42:12.627Z,8.50
2022-11-29T09:45:05.424Z,9.32
2022-11-29T09:47:58.272Z,9.00
2022-11-29T09:50:37.012Z,10.38
2022-11-29T09:53:44.044Z,8.88
2022-11-29T09:56:41.686Z,8.07
2022-11-29T09:59:29.178Z,5.47
2022-11-29T10:02:06.089Z,9.68
2022-11-29T10:04:40.746Z,9.40
2022-11-29T10:07:22.533Z,8.23
2022-11-29T10:10:02.205Z,9.83
2022-11-29T10:12:37.723Z,10.07
2022-11-29T10:15:17.463Z,8.90
2022-11-29T10:18:34.862Z,8.70
2022-11-29T10:21:13.668Z,9.50
2022-11-29T10:23:49.086Z,8.73
2022-11-29T10:26:18.500Z,5.40
2022-11-29T10:28:48.990Z,7.22
2022-11-29T10:31:27.569Z,8.40
2022-11-29T10:34:00.185Z,8.88
2022-11-29T10:36:34.351Z,7.87
2022-11-29T10:39:11.393Z,7.40
2022-11-29T10:41:41.678Z,6.62
2022-11-29T10:44:14.924Z,8.43
2022-11-29T10:46:43.537Z,7.82
2022-11-29T10:49:15.959Z,6.03
2022-11-29T10:51:47.876Z,6.55
2022-11-29T10:54:34.044Z,4.95
2022-11-29T10:57:02.688Z,7.18
2022-11-29T10:59:32.674Z,8.07
2022-11-29T11:02:02.181Z,6.53
2022-11-29T11:04:32.900Z,6.40
2022-11-29T11:07:03.066Z,7.10
2022-11-29T11:10:18.038Z,7.70
2022-11-29T11:13:04.615Z,8.68
2022-11-29T11:15:33.408Z,5.53
2022-11-29T11:18:05.202Z,7.10
2022-11-29T11:20:37.284Z,6.53
2022-11-29T11:23:08.300Z,6.10
2022-11-29T11:25:40.899Z,6.85
2022-11-29T11:28:38.803Z,7.18
2022-11-29T11:31:10.068Z,5.18
2022-11-29T11:33:42.975Z,6.55
2022-11-29T11:36:20.093Z,7.32
2022-11-29T11:38:58.231Z,8.30
2022-11-29T11:41:49.770Z,7.20
2022-11-29T11:44:48.692Z,9.35
2022-11-29T11:47:25.292Z,7.07
2022-11-29T11:50:05.178Z,5.15
2022-11-29T11:52:56.011Z,9.70
2022-11-29T11:55:38.731Z,9.15
2022-11-29T12:01:12.568Z,11.07
2022-11-29T12:03:49.960Z,9.70
2022-11-29T12:06:54.651Z,8.32
2022-11-29T12:09:43.851Z,10.45
2022-11-29T12:12:20.529Z,11.32
2022-11-29T12:14:54.771Z,10.05
2022-11-29T12:17:22.849Z,8.35
2022-11-29T12:20:18.755Z,10.93
2022-11-29T12:23:12.925Z,11.57
2022-11-29T12:26:19.235Z,11.18
2022-11-29T12:29:00.452Z,8.43
2022-11-29T12:31:31.233Z,9.13
2022-11-29T12:34:22.243Z,9.35
2022-11-29T12:37:09.263Z,8.18
2022-11-29T12:39:43.016Z,10.07
2022-11-29T12:42:19.847Z,10.52
2022-11-29T12:44:47.725Z,11.20
2022-11-29T12:47:36.750Z,10.63
2022-11-29T12:50:11.505Z,8.93
2022-11-29T12:53:10.601Z,9.07
2022-11-29T12:55:50.075Z,6.87
2022-11-29T12:58:26.703Z,10.50
2022-11-29T13:01:17.379Z,10.52
2022-11-29T13:03:49.591Z,9.40
2022-11-29T13:06:45.896Z,9.23
2022-11-29T13:09:13.865Z,9.30
2022-11-29T13:11:58.215Z,8.85
2022-11-29T13:14:43.367Z,10.00
2022-11-29T13:18:00.931Z,8.70
2022-11-29T13:20:45.816Z,9.93
2022-11-29T13:23:46.138Z,8.38
2022-11-29T13:26:20.517Z,9.50
2022-11-29T13:28:49.507Z,7.10
2022-11-29T13:31:22.813Z,8.63
2022-11-29T13:34:22.534Z,9.40
2022-11-29T13:37:11.288Z,9.10
2022-11-29T13:40:04.402Z,8.93
2022-11-29T13:42:37.787Z,9.05
2022-11-29T13:45:28.659Z,6.12
2022-11-29T13:48:00.344Z,8.80
2022-11-29T13:50:39.385Z,10.48
2022-11-29T13:53:42.834Z,8.35
2022-11-29T13:56:46.831Z,8.85
2022-11-29T13:59:29.619Z,8.88
2022-11-29T14:04:37.914Z,7.00
2022-11-29T14:07:21.271Z,6.18
2022-11-29T14:09:58.569Z,6.68
2022-11-29T14:12:37.415Z,7.53
2022-11-29T14:15:19.818Z,6.10
2022-11-29T14:18:08.434Z,6.60
2022-11-29T14:20:40.205Z,6.82
2022-11-29T14:23:08.057Z,8.15
2022-11-29T14:25:51.524Z,5.65
2022-11-29T14:28:23.658Z,7.43
2022-11-29T14:31:02.164Z,8.40
2022-11-29T14:33:48.851Z,7.80
2022-11-29T14:37:04.006Z,7.85
2022-11-29T14:39:45.141Z,7.87
2022-11-29T14:42:22.272Z,5.78
2022-11-29T14:44:53.260Z,7.90
2022-11-29T14:47:50.995Z,7.50
2022-11-29T14:50:38.906Z,7.93
2022-11-29T14:53:27.648Z,5.32
2022-11-29T14:56:35.068Z,5.35
2022-11-29T14:59:45.073Z,9.18
2022-11-29T15:02:26.425Z,7.57
2022-11-29T15:04:57.768Z,7.22
2022-11-29T15:07:30.923Z,4.78
2022-11-29T15:10:03.643Z,6.50
2022-11-29T15:12:37.821Z,4.90
2022-11-29T15:15:31.124Z,6.82
2022-11-29T15:18:19.257Z,5.32
2022-11-29T15:21:08.557Z,7.65
2022-11-29T15:23:43.740Z,8.13
2022-11-29T15:26:18.769Z,7.65
2022-11-29T15:28:47.145Z,7.62
2022-11-29T15:31:19.357Z,4.03
2022-11-29T15:33:49.437Z,6.65
2022-11-29T15:36:23.149Z,7.72
2022-11-29T15:38:59.451Z,5.62
2022-11-29T15:41:31.036Z,5.50
2022-11-29T15:44:06.745Z,6.65
2022-11-29T15:46:36.357Z,6.47
2022-11-29T15:49:24.985Z,7.22
2022-11-29T15:52:08.019Z,6.68
2022-11-29T15:54:46.262Z,6.85
2022-11-29T15:57:43.285Z,6.50
2022-11-29T16:00:20.684Z,4.57
2022-11-29T16:02:54.499Z,6.00
2022-11-29T16:05:28.425Z,6.35
2022-11-29T16:08:01.577Z,7.90
2022-11-29T16:10:37.911Z,3.72
2022-11-29T16:13:26.961Z,8.20
2022-11-29T16:16:23.121Z,6.55
2022-11-29T16:18:51.770Z,7.32
2022-11-29T16:21:37.787Z,6.15
2022-11-29T16:24:20.045Z,7.37
2022-11-29T16:26:51.272Z,7.12
2022-11-29T16:29:24.806Z,6.00
2022-11-29T16:31:53.814Z,7.62
2022-11-29T16:34:33.317Z,6.60
2022-11-29T16:37:20.621Z,6.12
2022-11-29T16:39:51.792Z,9.07
2022-11-29T16:42:28.722Z,9.38
2022-11-29T16:45:07.126Z,11.05
2022-11-29T16:47:59.935Z,20.83
2022-11-29T16:50:30.694Z,30.02
2022-11-29T16:53:34.870Z,25.48
2022-11-29T16:56:06.618Z,15.32
2022-11-29T16:59:16.588Z,10.75
2022-11-29T17:01:32.106Z,9.68
2022-11-29T17:04:00.928Z,9.00
2022-11-29T17:06:30.413Z,6.18
2022-11-29T17:08:59.851Z,8.20
2022-11-29T17:11:31.526Z,6.93
2022-11-29T17:14:00.207Z,6.65
2022-11-29T17:16:28.157Z,7.87
2022-11-29T17:18:56.149Z,5.53
2022-11-29T17:21:29.788Z,7.30
2022-11-29T17:23:57.974Z,8.45
2022-11-29T17:26:29.469Z,9.63
2022-11-29T17:28:57.358Z,6.45
2022-11-29T17:31:30.013Z,10.90
2022-11-29T17:34:01.062Z,10.73
2022-11-29T17:36:29.686Z,9.98
2022-11-29T17:39:00.273Z,10.75
2022-11-29T17:41:29.440Z,11.68
2022-11-29T17:43:58.218Z,10.23
2022-11-29T17:46:29.443Z,9.80
2022-11-29T17:49:00.385Z,6.50
2022-11-29T17:54:21.535Z,5.37
2022-11-29T17:56:49.864Z,8.63
2022-11-29T17:59:18.278Z,9.13
2022-11-29T18:01:50.041Z,5.60
2022-11-29T18:04:18.439Z,8.35
2022-11-29T18:06:50.643Z,8.50
2022-11-29T18:09:20.018Z,7.47
2022-11-29T18:11:50.153Z,7.25
2022-11-29T18:14:24.171Z,4.50
2022-11-29T18:16:52.666Z,7.15
2022-11-29T18:19:22.674Z,5.30
2022-11-29T18:21:51.501Z,8.77
2022-11-29T18:24:22.308Z,8.25
2022-11-29T18:26:50.577Z,7.18
2022-11-29T18:29:18.531Z,4.87
2022-11-29T18:31:46.882Z,8.05
2022-11-29T18:34:15.605Z,8.13
2022-11-29T18:36:48.285Z,6.95
2022-11-29T18:39:20.647Z,4.75
2022-11-29T18:41:50.281Z,7.28
2022-11-29T18:44:22.121Z,7.32
2022-11-29T18:46:50.296Z,4.35
2022-11-29T18:49:19.063Z,5.95
2022-11-29T18:51:50.949Z,8.88
2022-11-29T18:54:19.936Z,7.37
2022-11-29T18:56:51.018Z,7.43
2022-11-29T18:59:19.268Z,9.60
2022-11-29T19:01:48.665Z,7.72
2022-11-29T19:04:19.204Z,8.10
2022-11-29T19:06:47.691Z,7.72
2022-11-29T19:09:21.304Z,8.25
2022-11-29T19:11:50.164Z,8.10
2022-11-29T19:14:19.051Z,6.55
2022-11-29T19:16:48.704Z,8.00
2022-11-29T19:19:19.214Z,6.97
2022-11-29T19:21:48.497Z,8.63
2022-11-29T19:24:18.651Z,7.30
2022-11-29T19:26:50.038Z,5.13
2022-11-29T19:29:18.237Z,8.23
2022-11-29T19:31:46.071Z,5.00
2022-11-29T19:34:14.190Z,5.70
2022-11-29T19:36:44.771Z,8.50
2022-11-29T19:39:15.055Z,8.50
2022-11-29T19:41:45.993Z,7.32
2022-11-29T19:44:14.588Z,8.88
2022-11-29T19:46:45.948Z,8.98
2022-11-29T19:49:14.664Z,8.13
2022-11-29T19:51:43.596Z,7.25
2022-11-29T19:54:12.565Z,7.68
2022-11-29T19:56:40.829Z,5.03
2022-11-29T19:59:12.069Z,8.60
2022-11-29T20:01:42.320Z,5.60
2022-11-29T20:04:13.155Z,9.35
2022-11-29T20:06:42.166Z,10.70
2022-11-29T20:09:10.589Z,11.50
2022-11-29T20:11:39.139Z,12.10
2022-11-29T20:14:08.360Z,11.70
2022-11-29T20:16:38.352Z,11.05
2022-11-29T20:19:11.473Z,10.52
2022-11-29T20:21:43.732Z,10.02
2022-11-29T20:24:14.645Z,6.32
2022-11-29T20:26:46.569Z,5.15
2022-11-29T20:29:16.660Z,8.27
2022-11-29T20:31:50.180Z,5.78
2022-11-29T20:34:20.962Z,6.32
2022-11-29T20:37:21.572Z,6.50
2022-11-29T20:40:36.967Z,8.57
2022-11-29T20:43:24.571Z,7.82
2022-11-29T20:45:54.588Z,9.23
2022-11-29T20:48:23.726Z,7.70
2022-11-29T20:50:58.985Z,8.73
2022-11-29T20:53:46.559Z,8.07
2022-11-29T20:56:14.692Z,9.15
2022-11-29T20:58:42.900Z,7.90
2022-11-29T21:01:10.859Z,9.88
2022-11-29T21:03:38.703Z,8.52
2022-11-29T21:06:07.245Z,9.30
2022-11-29T21:11:22.046Z,7.53
2022-11-29T21:13:50.012Z,7.55
2022-11-29T21:16:18.030Z,5.80
2022-11-29T21:18:48.507Z,5.75
2022-11-29T21:21:35.361Z,8.30
2022-11-29T21:24:31.771Z,9.00
2022-11-29T21:26:59.750Z,8.23
2022-11-29T21:29:28.236Z,9.48
2022-11-29T21:31:56.201Z,6.53
2022-11-29T21:34:24.018Z,8.82
2022-11-29T21:37:01.469Z,8.55
2022-11-29T21:39:34.888Z,10.35
2022-11-29T21:42:03.210Z,8.48
2022-11-29T21:44:31.054Z,9.32
2022-11-29T21:46:58.836Z,9.45
2022-11-29T21:49:27.105Z,7.57
2022-11-29T21:51:57.851Z,8.68
2022-11-29T21:54:26.238Z,5.50
2022-11-29T21:56:59.205Z,8.70
2022-11-29T22:02:04.989Z,9.85
2022-11-29T22:04:37.347Z,9.88
2022-11-29T22:07:06.463Z,8.63
2022-11-29T22:09:37.356Z,9.20
2022-11-29T22:12:25.851Z,7.65
2022-11-29T22:14:57.985Z,9.77
2022-11-29T22:17:26.465Z,9.80
2022-11-29T22:19:56.590Z,10.00
2022-11-29T22:22:27.918Z,9.57
2022-11-29T22:24:57.465Z,10.98
2022-11-29T22:27:25.616Z,8.05
2022-11-29T22:29:53.914Z,9.40
2022-11-29T22:32:22.677Z,9.82
2022-11-29T22:34:50.586Z,7.68
2022-11-29T22:37:18.472Z,8.68
2022-11-29T22:39:49.903Z,7.00
2022-11-29T22:42:17.673Z,8.70
2022-11-29T22:44:45.654Z,7.22
2022-11-29T22:47:14.100Z,6.97
2022-11-29T22:49:42.025Z,7.60
2022-11-29T22:52:09.906Z,6.90
2022-11-29T22:54:38.083Z,7.25
2022-11-29T22:57:05.965Z,7.55
2022-11-29T22:59:33.844Z,8.05
2022-11-29T23:02:02.157Z,6.45
2022-11-29T23:04:29.957Z,5.62
2022-11-29T23:07:01.161Z,7.78
2022-11-29T23:09:29.723Z,5.75
2022-11-29T23:11:57.585Z,8.30
2022-11-29T23:14:25.535Z,8.15
2022-11-29T23:16:53.830Z,5.87
2022-11-29T23:19:24.572Z,7.82
2022-11-29T23:21:52.334Z,6.40
2022-11-29T23:24:20.595Z,5.78
2022-11-29T23:26:48.587Z,7.70
2022-11-29T23:29:19.035Z,7.47
2022-11-29T23:31:49.169Z,5.03
2022-11-29T23:34:17.857Z,7.18
2022-11-29T23:36:49.773Z,7.35
2022-11-29T23:39:21.791Z,7.00
2022-11-29T23:41:49.566Z,6.80
2022-11-29T23:44:17.370Z,7.75
2022-11-29T23:46:48.360Z,7.68
2022-11-29T23:49:19.401Z,6.12
2022-11-29T23:51:50.723Z,7.20
2022-11-29T23:54:18.514Z,7.10
2022-11-29T23:56:46.300Z,7.32
2022-11-29T23:59:14.503Z,6.35
